createdAt,value
2018-08-12T00:00:13.125Z,8.47
2018-08-12T00:02:41.254Z,7.63
2018-08-12T00:05:09.367Z,7.80
2018-08-12T00:07:37.522Z,8.40
2018-08-12T00:10:07.707Z,8.00
2018-08-12T00:12:35.790Z,7.23
2018-08-12T00:15:04.620Z,7.30
2018-08-12T00:17:32.708Z,7.40
2018-08-12T00:20:00.790Z,7.50
2018-08-12T00:22:28.880Z,7.10
2018-08-12T00:24:56.975Z,7.50
2018-08-12T00:27:25.051Z,7.60
2018-08-12T00:29:53.156Z,7.67
2018-08-12T00:32:21.263Z,7.90
2018-08-12T00:34:49.357Z,7.30
2018-08-12T00:37:17.495Z,6.97
2018-08-12T00:39:45.588Z,6.30
2018-08-12T00:42:13.687Z,6.80
2018-08-12T00:44:41.772Z,7.60
2018-08-12T00:47:09.863Z,7.13
2018-08-12T00:49:37.953Z,6.23
2018-08-12T00:52:06.035Z,7.27
2018-08-12T00:54:34.139Z,6.37
2018-08-12T00:57:02.211Z,6.90
2018-08-12T00:59:30.313Z,6.37
2018-08-12T01:01:58.400Z,6.90
2018-08-12T01:04:26.484Z,6.20
2018-08-12T01:06:54.568Z,7.00
2018-08-12T01:09:22.660Z,6.03
2018-08-12T01:11:50.760Z,6.17
2018-08-12T01:14:18.843Z,6.00
2018-08-12T01:16:46.948Z,6.30
2018-08-12T01:19:15.048Z,5.90
2018-08-12T01:21:43.132Z,5.60
2018-08-12T01:24:11.240Z,6.17
2018-08-12T01:26:39.327Z,6.03
2018-08-12T01:29:07.436Z,5.87
2018-08-12T01:31:35.603Z,5.10
2018-08-12T01:34:03.708Z,5.70
2018-08-12T01:36:31.812Z,6.10
2018-08-12T01:38:59.919Z,5.70
2018-08-12T01:41:28.017Z,5.50
2018-08-12T01:43:56.156Z,5.63
2018-08-12T01:46:24.257Z,5.73
2018-08-12T01:48:52.381Z,5.57
2018-08-12T01:51:20.608Z,5.60
2018-08-12T01:53:48.695Z,5.30
2018-08-12T01:56:16.800Z,5.57
2018-08-12T01:58:44.999Z,5.00
2018-08-12T02:01:13.092Z,5.00
2018-08-12T02:03:41.591Z,5.00
2018-08-12T02:06:09.717Z,4.97
2018-08-12T02:08:37.818Z,5.40
2018-08-12T02:11:05.919Z,4.80
2018-08-12T02:13:34.030Z,5.10
2018-08-12T02:16:02.128Z,4.93
2018-08-12T02:18:30.465Z,5.27
2018-08-12T02:20:58.550Z,4.77
2018-08-12T02:23:26.860Z,4.63
2018-08-12T02:25:54.971Z,5.40
2018-08-12T02:28:23.071Z,5.40
2018-08-12T02:30:51.184Z,4.87
2018-08-12T02:33:19.280Z,5.43
2018-08-12T02:35:47.380Z,5.20
2018-08-12T02:38:15.479Z,4.53
2018-08-12T02:40:43.581Z,4.90
2018-08-12T02:43:11.660Z,4.20
2018-08-12T02:45:39.800Z,4.17
2018-08-12T02:48:07.890Z,5.00
2018-08-12T02:50:35.975Z,4.27
2018-08-12T02:53:04.070Z,4.07
2018-08-12T02:55:32.199Z,4.60
2018-08-12T02:58:00.292Z,4.70
2018-08-12T03:00:28.394Z,4.27
2018-08-12T03:02:56.463Z,4.60
2018-08-12T03:05:24.566Z,3.87
2018-08-12T03:07:52.651Z,4.00
2018-08-12T03:10:20.769Z,4.40
2018-08-12T03:12:48.855Z,4.50
2018-08-12T03:15:16.952Z,4.10
2018-08-12T03:17:45.067Z,4.40
2018-08-12T03:20:13.196Z,4.13
2018-08-12T03:22:41.307Z,4.30
2018-08-12T03:25:10.485Z,3.73
2018-08-12T03:27:38.686Z,4.37
2018-08-12T03:30:07.712Z,3.63
2018-08-12T03:32:35.723Z,4.10
2018-08-12T03:35:04.107Z,4.13
2018-08-12T03:37:32.312Z,4.00
2018-08-12T03:40:00.459Z,3.67
2018-08-12T03:42:28.557Z,3.97
2018-08-12T03:44:56.719Z,3.70
2018-08-12T03:47:24.822Z,3.50
2018-08-12T03:49:52.946Z,3.43
2018-08-12T03:52:21.039Z,3.40
2018-08-12T03:54:49.165Z,3.10
2018-08-12T03:57:17.258Z,3.47
2018-08-12T03:59:45.347Z,3.70
2018-08-12T04:02:13.464Z,3.47
2018-08-12T04:04:41.592Z,3.83
2018-08-12T04:07:09.707Z,3.50
2018-08-12T04:09:37.847Z,3.40
2018-08-12T04:12:05.948Z,3.60
2018-08-12T04:14:34.044Z,3.63
2018-08-12T04:17:02.170Z,3.40
2018-08-12T04:19:31.478Z,3.20
2018-08-12T04:21:59.824Z,3.57
2018-08-12T04:24:27.916Z,3.43
2018-08-12T04:26:56.017Z,3.17
2018-08-12T04:29:24.127Z,3.40
2018-08-12T04:31:52.220Z,3.10
2018-08-12T04:34:20.312Z,3.50
2018-08-12T04:36:48.409Z,3.20
2018-08-12T04:39:16.512Z,3.00
2018-08-12T04:41:44.647Z,3.30
2018-08-12T04:44:13.219Z,3.30
2018-08-12T04:46:41.336Z,3.13
2018-08-12T04:49:10.011Z,3.27
2018-08-12T04:51:38.268Z,3.30
2018-08-12T04:54:06.735Z,3.20
2018-08-12T04:56:34.827Z,3.50
2018-08-12T04:59:02.915Z,3.00
2018-08-12T05:01:31.011Z,2.80
2018-08-12T05:03:59.150Z,3.50
2018-08-12T05:06:27.278Z,3.40
2018-08-12T05:08:55.359Z,3.27
2018-08-12T05:11:23.444Z,3.47
2018-08-12T05:13:51.565Z,3.50
2018-08-12T05:16:20.011Z,3.20
2018-08-12T05:18:48.120Z,2.83
2018-08-12T05:21:16.213Z,3.00
2018-08-12T05:23:44.324Z,3.13
2018-08-12T05:26:12.435Z,3.00
2018-08-12T05:28:40.555Z,3.00
2018-08-12T05:31:08.653Z,2.90
2018-08-12T05:33:36.752Z,2.80
2018-08-12T05:36:04.983Z,2.60
2018-08-12T05:38:33.026Z,2.93
2018-08-12T05:41:01.112Z,3.03
2018-08-12T05:43:29.224Z,2.80
2018-08-12T05:45:57.343Z,2.60
2018-08-12T05:48:26.263Z,2.90
2018-08-12T05:51:00.038Z,2.60
2018-08-12T05:53:28.127Z,2.57
2018-08-12T05:55:56.232Z,2.70
2018-08-12T05:58:24.331Z,2.57
2018-08-12T06:00:52.436Z,2.87
2018-08-12T06:03:20.535Z,2.80
2018-08-12T06:05:48.648Z,3.30
2018-08-12T06:08:16.749Z,2.50
2018-08-12T06:10:44.836Z,2.43
2018-08-12T06:13:12.931Z,2.60
2018-08-12T06:15:41.051Z,2.53
2018-08-12T06:18:09.161Z,2.20
2018-08-12T06:20:37.249Z,2.90
2018-08-12T06:23:05.335Z,2.67
2018-08-12T06:25:33.460Z,2.17
2018-08-12T06:28:01.643Z,2.37
2018-08-12T06:30:29.735Z,2.30
2018-08-12T06:32:57.840Z,2.53
2018-08-12T06:35:25.923Z,2.63
2018-08-12T06:37:54.012Z,2.23
2018-08-12T06:40:22.081Z,2.70
2018-08-12T06:42:50.183Z,2.00
2018-08-12T06:45:18.640Z,2.30
2018-08-12T06:47:47.771Z,2.47
2018-08-12T06:50:15.888Z,2.20
2018-08-12T06:52:44.271Z,2.20
2018-08-12T06:55:13.203Z,2.47
2018-08-12T06:57:42.044Z,2.10
2018-08-12T07:00:14.185Z,2.07
2018-08-12T07:02:42.292Z,2.30
2018-08-12T07:05:11.047Z,2.03
2018-08-12T07:07:39.164Z,1.80
2018-08-12T07:10:11.495Z,1.93
2018-08-12T07:12:39.647Z,1.83
2018-08-12T07:15:10.783Z,1.73
2018-08-12T07:17:38.883Z,2.10
2018-08-12T07:20:07.987Z,1.80
2018-08-12T07:22:36.456Z,1.50
2018-08-12T07:25:05.128Z,1.90
2018-08-12T07:27:33.224Z,2.07
2018-08-12T07:30:01.363Z,1.57
2018-08-12T07:32:29.517Z,1.67
2018-08-12T07:34:57.643Z,1.90
2018-08-12T07:37:25.755Z,1.70
2018-08-12T07:39:53.860Z,1.77
2018-08-12T07:42:21.945Z,1.90
2018-08-12T07:44:50.117Z,1.80
2018-08-12T07:47:18.240Z,1.63
2018-08-12T07:49:46.532Z,1.40
2018-08-12T07:52:14.623Z,1.60
2018-08-12T07:54:42.739Z,1.60
2018-08-12T07:57:10.843Z,1.70
2018-08-12T07:59:38.975Z,1.77
2018-08-12T08:02:07.100Z,1.50
2018-08-12T08:04:35.228Z,2.00
2018-08-12T08:07:03.320Z,1.87
2018-08-12T08:09:31.447Z,1.67
2018-08-12T08:11:59.570Z,1.53
2018-08-12T08:14:27.690Z,1.53
2018-08-12T08:16:55.823Z,1.83
2018-08-12T08:19:23.943Z,1.50
2018-08-12T08:21:52.170Z,1.67
2018-08-12T08:24:20.313Z,1.50
2018-08-12T08:26:48.434Z,1.80
2018-08-12T08:29:16.561Z,1.80
2018-08-12T08:31:44.868Z,1.70
2018-08-12T08:34:12.760Z,1.70
2018-08-12T08:36:40.866Z,1.77
2018-08-12T08:39:11.082Z,1.50
2018-08-12T08:41:39.238Z,1.73
2018-08-12T08:44:07.500Z,1.43
2018-08-12T08:46:35.543Z,1.40
2018-08-12T08:49:03.679Z,1.83
2018-08-12T08:51:31.795Z,1.50
2018-08-12T08:54:00.349Z,1.77
2018-08-12T08:56:28.499Z,1.40
2018-08-12T08:58:56.796Z,1.50
2018-08-12T09:01:25.000Z,1.57
2018-08-12T09:03:53.020Z,2.03
2018-08-12T09:06:21.132Z,1.30
2018-08-12T09:08:49.391Z,1.70
2018-08-12T09:11:17.420Z,1.30
2018-08-12T09:13:45.543Z,1.90
2018-08-12T09:16:13.673Z,1.80
2018-08-12T09:18:41.788Z,1.43
2018-08-12T09:21:09.906Z,1.50
2018-08-12T09:23:38.043Z,1.30
2018-08-12T09:26:06.218Z,1.40
2018-08-12T09:28:34.348Z,1.50
2018-08-12T09:31:02.470Z,1.67
2018-08-12T09:33:30.571Z,1.60
2018-08-12T09:35:58.688Z,1.37
2018-08-12T09:38:26.780Z,1.70
2018-08-12T09:40:54.916Z,1.80
2018-08-12T09:43:23.047Z,1.60
2018-08-12T09:45:51.163Z,1.37
2018-08-12T09:48:19.272Z,1.80
2018-08-12T09:50:47.415Z,1.50
2018-08-12T09:53:15.543Z,1.73
2018-08-12T09:55:43.651Z,1.80
2018-08-12T09:58:11.785Z,1.90
2018-08-12T10:00:40.959Z,1.93
2018-08-12T10:03:09.782Z,1.90
2018-08-12T10:05:37.913Z,3.00
2018-08-12T10:08:06.072Z,2.03
2018-08-12T10:10:34.203Z,2.60
2018-08-12T10:13:02.351Z,2.77
2018-08-12T10:15:30.519Z,2.80
2018-08-12T10:18:01.024Z,2.70
2018-08-12T10:20:29.227Z,2.83
2018-08-12T10:22:57.340Z,2.87
2018-08-12T10:25:25.504Z,2.70
2018-08-12T10:27:53.709Z,3.23
2018-08-12T10:30:21.858Z,3.23
2018-08-12T10:32:50.028Z,3.57
2018-08-12T10:35:18.425Z,2.60
2018-08-12T10:37:46.719Z,2.80
2018-08-12T10:40:16.451Z,3.37
2018-08-12T10:42:45.429Z,3.23
2018-08-12T10:45:13.831Z,3.40
2018-08-12T10:47:42.517Z,3.53
2018-08-12T10:50:12.900Z,3.30
2018-08-12T10:52:42.135Z,4.13
2018-08-12T10:55:11.089Z,3.87
2018-08-12T10:57:39.507Z,3.47
2018-08-12T11:00:12.699Z,3.43
2018-08-12T11:02:40.813Z,2.63
2018-08-12T11:05:08.961Z,3.67
2018-08-12T11:07:37.056Z,3.50
2018-08-12T11:10:06.232Z,3.70
2018-08-12T11:12:34.375Z,2.50
2018-08-12T11:15:02.522Z,3.00
2018-08-12T11:17:30.865Z,4.03
2018-08-12T11:19:59.000Z,3.90
2018-08-12T11:22:27.147Z,3.97
2018-08-12T11:24:55.260Z,3.80
2018-08-12T11:27:23.400Z,3.53
2018-08-12T11:29:51.498Z,2.60
2018-08-12T11:32:19.751Z,3.13
2018-08-12T11:34:47.976Z,3.27
2018-08-12T11:37:16.070Z,3.70
2018-08-12T11:39:44.188Z,3.47
2018-08-12T11:42:13.400Z,3.27
2018-08-12T11:44:41.538Z,3.50
2018-08-12T11:47:09.648Z,3.13
2018-08-12T11:49:37.768Z,2.90
2018-08-12T11:52:06.130Z,3.00
2018-08-12T11:54:34.270Z,3.03
2018-08-12T11:57:02.452Z,3.50
2018-08-12T11:59:30.521Z,2.80
2018-08-12T12:01:58.632Z,2.90
2018-08-12T12:04:26.776Z,3.33
2018-08-12T12:06:54.924Z,3.17
2018-08-12T12:09:23.044Z,3.17
2018-08-12T12:11:51.147Z,3.17
2018-08-12T12:14:19.233Z,2.40
2018-08-12T12:16:47.354Z,3.27
2018-08-12T12:19:15.780Z,2.70
2018-08-12T12:21:44.084Z,3.50
2018-08-12T12:24:12.218Z,3.40
2018-08-12T12:26:40.331Z,3.20
2018-08-12T12:29:08.421Z,3.33
2018-08-12T12:31:36.592Z,3.03
2018-08-12T12:34:04.735Z,3.30
2018-08-12T12:36:32.870Z,3.40
2018-08-12T12:39:01.118Z,2.97
2018-08-12T12:41:29.340Z,2.70
2018-08-12T12:43:57.407Z,2.70
2018-08-12T12:46:25.548Z,2.70
2018-08-12T12:51:28.040Z,2.70
2018-08-12T12:53:56.168Z,2.57
2018-08-12T12:56:24.294Z,2.67
2018-08-12T12:58:55.086Z,2.53
2018-08-12T13:01:23.424Z,2.67
2018-08-12T13:03:51.536Z,2.80
2018-08-12T13:06:19.663Z,2.70
2018-08-12T13:08:47.777Z,2.53
2018-08-12T13:11:15.919Z,2.60
2018-08-12T13:13:44.144Z,2.50
2018-08-12T13:16:12.308Z,3.23
2018-08-12T13:18:40.448Z,2.60
2018-08-12T13:21:08.571Z,2.00
2018-08-12T13:23:36.695Z,2.23
2018-08-12T13:26:04.788Z,2.40
2018-08-12T13:28:32.889Z,3.40
2018-08-12T13:31:01.019Z,2.23
2018-08-12T13:33:29.221Z,2.07
2018-08-12T13:35:57.312Z,2.23
2018-08-12T13:38:25.436Z,1.90
2018-08-12T13:40:53.539Z,1.90
2018-08-12T13:43:21.747Z,1.73
2018-08-12T13:45:49.820Z,1.87
2018-08-12T13:48:17.939Z,2.30
2018-08-12T13:50:46.020Z,2.03
2018-08-12T13:53:14.171Z,2.43
2018-08-12T13:55:42.263Z,2.40
2018-08-12T13:58:10.357Z,2.73
2018-08-12T14:00:38.479Z,2.40
2018-08-12T14:03:07.042Z,1.90
2018-08-12T14:05:35.147Z,2.00
2018-08-12T14:08:03.272Z,2.17
2018-08-12T14:10:31.382Z,1.80
2018-08-12T14:12:59.909Z,2.50
2018-08-12T14:15:28.148Z,2.23
2018-08-12T14:17:56.323Z,2.00
2018-08-12T14:20:24.546Z,2.40
2018-08-12T14:22:52.688Z,1.50
2018-08-12T14:25:20.807Z,1.83
2018-08-12T14:27:48.963Z,1.80
2018-08-12T14:30:19.441Z,2.03
2018-08-12T14:32:48.155Z,2.03
2018-08-12T14:35:16.322Z,1.57
2018-08-12T14:37:44.445Z,1.83
2018-08-12T14:40:12.951Z,2.47
2018-08-12T14:42:41.082Z,1.93
2018-08-12T14:45:10.684Z,2.53
2018-08-12T14:47:39.315Z,1.90
2018-08-12T14:50:09.783Z,1.87
2018-08-12T14:52:37.875Z,1.90
2018-08-12T14:55:07.067Z,2.00
2018-08-12T14:57:35.244Z,2.23
2018-08-12T15:00:03.573Z,2.23
2018-08-12T15:02:31.708Z,1.80
2018-08-12T15:04:59.835Z,2.50
2018-08-12T15:07:27.932Z,3.70
2018-08-12T15:09:56.035Z,2.70
2018-08-12T15:12:24.156Z,2.10
2018-08-12T15:14:52.327Z,1.73
2018-08-12T15:17:20.452Z,2.50
2018-08-12T15:19:48.551Z,2.33
2018-08-12T15:22:16.690Z,2.07
2018-08-12T15:24:44.798Z,2.40
2018-08-12T15:27:12.938Z,1.83
2018-08-12T15:29:41.351Z,1.77
2018-08-12T15:32:09.464Z,2.30
2018-08-12T15:34:37.660Z,2.30
2018-08-12T15:37:05.728Z,2.00
2018-08-12T15:39:33.821Z,1.77
2018-08-12T15:42:01.950Z,2.40
2018-08-12T15:44:30.040Z,2.20
2018-08-12T15:46:58.155Z,2.57
2018-08-12T15:49:26.272Z,2.13
2018-08-12T15:51:54.390Z,1.60
2018-08-12T15:54:22.577Z,1.80
2018-08-12T15:56:50.700Z,2.37
2018-08-12T15:59:18.970Z,1.83
2018-08-12T16:01:47.211Z,2.53
2018-08-12T16:04:15.340Z,1.93
2018-08-12T16:06:43.463Z,1.77
2018-08-12T16:09:12.304Z,2.20
2018-08-12T16:11:40.437Z,1.80
2018-08-12T16:14:08.536Z,1.80
2018-08-12T16:16:36.666Z,1.50
2018-08-12T16:19:04.831Z,1.80
2018-08-12T16:21:32.972Z,1.73
2018-08-12T16:24:01.125Z,2.13
2018-08-12T16:26:29.259Z,2.03
2018-08-12T16:28:57.592Z,2.30
2018-08-12T16:31:25.776Z,2.03
2018-08-12T16:33:55.084Z,2.40
2018-08-12T16:36:29.791Z,2.10
2018-08-12T16:38:57.941Z,1.60
2018-08-12T16:41:26.187Z,2.47
2018-08-12T16:43:54.392Z,2.27
2018-08-12T16:46:22.520Z,1.80
2018-08-12T16:48:50.684Z,2.50
2018-08-12T16:51:19.778Z,2.83
2018-08-12T16:53:48.543Z,2.60
2018-08-12T16:56:16.780Z,2.53
2018-08-12T16:58:44.917Z,4.00
2018-08-12T17:01:13.438Z,2.80
2018-08-12T17:03:41.779Z,3.40
2018-08-12T17:06:10.065Z,2.80
2018-08-12T17:08:38.981Z,2.53
2018-08-12T17:11:07.376Z,2.40
2018-08-12T17:13:36.204Z,2.17
2018-08-12T17:16:04.807Z,2.40
2018-08-12T17:18:33.445Z,2.50
2018-08-12T17:21:01.574Z,2.40
2018-08-12T17:23:29.800Z,2.70
2018-08-12T17:25:58.612Z,2.60
2018-08-12T17:28:27.231Z,2.70
2018-08-12T17:30:55.442Z,2.30
2018-08-12T17:33:23.793Z,2.70
2018-08-12T17:35:57.563Z,2.60
2018-08-12T17:38:26.017Z,2.47
2018-08-12T17:40:54.449Z,2.60
2018-08-12T17:43:23.515Z,2.40
2018-08-12T17:45:51.930Z,2.70
2018-08-12T17:48:20.384Z,2.17
2018-08-12T17:50:48.754Z,2.23
2018-08-12T17:53:17.422Z,2.40
2018-08-12T17:55:45.541Z,2.20
2018-08-12T17:58:13.895Z,2.10
2018-08-12T18:00:42.040Z,2.50
2018-08-12T18:03:10.393Z,2.27
2018-08-12T18:05:38.905Z,2.10
2018-08-12T18:08:07.275Z,2.00
2018-08-12T18:10:35.555Z,2.20
2018-08-12T18:13:03.804Z,2.43
2018-08-12T18:15:32.068Z,2.60
2018-08-12T18:18:00.340Z,2.63
2018-08-12T18:20:28.528Z,2.60
2018-08-12T18:22:56.875Z,2.70
2018-08-12T18:25:25.199Z,2.67
2018-08-12T18:27:53.380Z,2.90
2018-08-12T18:30:21.521Z,2.57
2018-08-12T18:32:49.689Z,2.83
2018-08-12T18:35:17.869Z,2.77
2018-08-12T18:37:46.004Z,2.83
2018-08-12T18:40:14.117Z,2.53
2018-08-12T18:42:42.212Z,2.73
2018-08-12T18:45:10.420Z,2.43
2018-08-12T18:47:38.573Z,2.50
2018-08-12T18:50:08.056Z,2.77
2018-08-12T18:52:36.147Z,2.43
2018-08-12T18:55:05.537Z,2.77
2018-08-12T18:57:33.627Z,2.47
2018-08-12T19:00:01.735Z,3.00
2018-08-12T19:02:30.099Z,2.53
2018-08-12T19:04:58.265Z,2.70
2018-08-12T19:07:26.384Z,2.73
2018-08-12T19:09:54.541Z,2.70
2018-08-12T19:12:22.595Z,2.57
2018-08-12T19:14:50.712Z,2.53
2018-08-12T19:17:18.931Z,2.67
2018-08-12T19:19:47.024Z,2.20
2018-08-12T19:22:15.138Z,2.53
2018-08-12T19:24:43.320Z,2.57
2018-08-12T19:27:11.412Z,2.43
2018-08-12T19:29:39.844Z,2.50
2018-08-12T19:32:07.968Z,2.60
2018-08-12T19:34:36.207Z,2.73
2018-08-12T19:37:04.703Z,2.67
2018-08-12T19:39:32.785Z,2.97
2018-08-12T19:42:00.914Z,2.83
2018-08-12T19:44:29.058Z,2.10
2018-08-12T19:46:57.112Z,2.73
2018-08-12T19:49:25.230Z,2.47
2018-08-12T19:51:53.315Z,2.70
2018-08-12T19:54:21.404Z,2.37
2018-08-12T19:56:49.503Z,2.57
2018-08-12T19:59:17.611Z,2.60
2018-08-12T20:01:45.698Z,2.50
2018-08-12T20:04:13.792Z,2.53
2018-08-12T20:06:41.959Z,3.03
2018-08-12T20:09:11.183Z,2.53
2018-08-12T20:11:39.474Z,2.60
2018-08-12T20:14:08.015Z,2.53
2018-08-12T20:16:36.155Z,2.77
2018-08-12T20:19:04.573Z,2.43
2018-08-12T20:21:34.085Z,2.30
2018-08-12T20:24:02.812Z,2.30
2018-08-12T20:26:30.946Z,2.93
2018-08-12T20:28:59.027Z,2.70
2018-08-12T20:31:27.290Z,2.50
2018-08-12T20:33:55.375Z,2.60
2018-08-12T20:36:23.534Z,2.63
2018-08-12T20:38:51.676Z,2.90
2018-08-12T20:41:19.767Z,2.50
2018-08-12T20:43:47.865Z,2.50
2018-08-12T20:46:15.969Z,2.60
2018-08-12T20:48:44.056Z,2.87
2018-08-12T20:51:12.152Z,2.87
2018-08-12T20:53:40.271Z,2.63
2018-08-12T20:56:08.403Z,2.80
2018-08-12T20:58:36.495Z,2.50
2018-08-12T21:01:04.773Z,2.90
2018-08-12T21:03:32.863Z,2.90
2018-08-12T21:06:02.536Z,2.63
2018-08-12T21:08:31.629Z,2.60
2018-08-12T21:10:59.707Z,2.83
2018-08-12T21:13:27.864Z,2.50
2018-08-12T21:15:55.951Z,2.43
2018-08-12T21:18:24.103Z,2.90
2018-08-12T21:20:52.212Z,2.40
2018-08-12T21:23:20.319Z,2.60
2018-08-12T21:25:48.519Z,3.00
2018-08-12T21:28:16.627Z,2.63
2018-08-12T21:30:44.712Z,2.73
2018-08-12T21:33:12.841Z,2.60
2018-08-12T21:35:40.936Z,2.70
2018-08-12T21:38:09.047Z,2.90
2018-08-12T21:40:37.143Z,2.70
2018-08-12T21:43:05.296Z,2.90
2018-08-12T21:45:33.428Z,2.67
2018-08-12T21:48:01.584Z,2.77
2018-08-12T21:50:29.701Z,2.53
2018-08-12T21:52:57.819Z,2.10
2018-08-12T21:55:25.932Z,2.90
2018-08-12T21:57:54.374Z,2.50
2018-08-12T22:00:22.639Z,2.20
2018-08-12T22:02:50.816Z,2.47
2018-08-12T22:05:18.909Z,2.83
2018-08-12T22:07:47.003Z,2.80
2018-08-12T22:10:15.100Z,2.37
2018-08-12T22:12:43.252Z,2.80
2018-08-12T22:15:11.416Z,2.70
2018-08-12T22:17:39.550Z,2.53
2018-08-12T22:20:07.648Z,2.70
2018-08-12T22:22:35.796Z,2.90
2018-08-12T22:25:04.356Z,2.33
2018-08-12T22:27:32.472Z,2.47
2018-08-12T22:30:00.622Z,2.60
2018-08-12T22:32:28.718Z,2.50
2018-08-12T22:34:56.843Z,2.83
2018-08-12T22:37:24.950Z,2.80
2018-08-12T22:39:53.112Z,2.30
2018-08-12T22:42:21.324Z,2.50
2018-08-12T22:44:49.469Z,2.57
2018-08-12T22:47:17.558Z,2.57
2018-08-12T22:49:45.655Z,2.83
2018-08-12T22:52:13.780Z,2.53
2018-08-12T22:54:41.888Z,2.70
2018-08-12T22:57:10.040Z,3.27
2018-08-12T22:59:38.137Z,3.00
2018-08-12T23:02:06.764Z,2.70
2018-08-12T23:04:34.876Z,2.53
2018-08-12T23:07:02.963Z,2.80
2018-08-12T23:09:31.470Z,2.50
2018-08-12T23:11:59.563Z,2.73
2018-08-12T23:14:27.696Z,2.87
2018-08-12T23:16:58.636Z,2.67
2018-08-12T23:19:26.793Z,2.70
2018-08-12T23:21:55.008Z,2.80
2018-08-12T23:24:23.112Z,2.70
2018-08-12T23:26:51.228Z,2.80
2018-08-12T23:29:19.411Z,2.53
2018-08-12T23:31:47.523Z,2.57
2018-08-12T23:34:15.623Z,2.53
2018-08-12T23:36:43.724Z,2.40
2018-08-12T23:39:12.603Z,2.63
2018-08-12T23:41:40.876Z,2.90
2018-08-12T23:44:09.480Z,2.57
2018-08-12T23:46:37.619Z,2.40
2018-08-12T23:49:05.728Z,2.50
2018-08-12T23:51:33.842Z,2.37
2018-08-12T23:54:01.968Z,2.77
2018-08-12T23:56:30.055Z,2.33
2018-08-12T23:58:58.230Z,3.03
